Time;durP1;ratioP1;P1;durP2;ratioP2;P2;SDS_P1;SDS_P2;PMS_P1;PMS_P2;Temp;Humidity;BMP_temperature;BMP_pressure;BME280_temperature;BME280_humidity;BME280_pressure;Samples;Min_cycle;Max_cycle;Signal;HPM_P1;HPM_P2
2022/10/15 00:01:01;;;;;;;;;;;;;;;;;;5007399;28;19921;-58
2022/10/15 00:03:27;;;;;;;;;;;;;;;;;;5010730;28;20318;-58
2022/10/15 00:05:53;;;;;;;;;;;;;;;;;;5007318;28;19929;-57
2022/10/15 00:08:19;;;;;;;;;;;;;;;;;;5010869;28;20398;-56
2022/10/15 00:10:45;;;;;;;;;;;;;;;;;;5004567;28;19937;-58
2022/10/15 00:13:11;;;;;;;;;;;;;;;;;;5007265;28;20471;-58
2022/10/15 00:15:37;;;;;;;;;;;;;;;;;;5010159;28;19921;-58
2022/10/15 00:18:03;;;;;;;;;;;;;;;;;;5007309;28;19928;-58
2022/10/15 00:20:30;;;;;;;;;;;;;;;;;;5011481;28;20417;-59
2022/10/15 00:22:56;;;;;;;;;;;;;;;;;;5007374;28;19928;-58
2022/10/15 00:25:22;;;;;;;;;;;;;;;;;;5008368;28;20290;-58
2022/10/15 00:27:48;;;;;;;;;;;;;;;;;;5006198;28;19980;-58
2022/10/15 00:30:14;;;;;;;;;;;;;;;;;;5007457;28;20406;-58
2022/10/15 00:32:40;;;;;;;;;;;;;;;;;;4992325;28;19921;-58
2022/10/15 00:35:06;;;;;;;;;;;;;;;;;;5007774;28;19929;-58
2022/10/15 00:37:32;;;;;;;;;;;;;;;;;;5007126;28;19928;-58
2022/10/15 00:39:58;;;;;;;;;;;;;;;;;;5008138;28;19922;-58
2022/10/15 00:42:24;;;;;;;;;;;;;;;;;;4988629;28;19921;-58
2022/10/15 00:44:50;;;;;;;;;;;;;;;;;;5011544;28;20005;-58
2022/10/15 00:47:16;;;;;;;;;;;;;;;;;;5005994;28;20004;-58
2022/10/15 00:49:42;;;;;;;;;;;;;;;;;;5008944;28;20000;-57
2022/10/15 00:52:08;;;;;;;;;;;;;;;;;;5008134;28;19922;-58
2022/10/15 00:54:34;;;;;;;;;;;;;;;;;;5007636;28;20012;-58
2022/10/15 00:57:00;;;;;;;;;;;;;;;;;;5009235;28;19921;-57
2022/10/15 00:59:26;;;;;;;;;;;;;;;;;;5009594;28;20032;-58
2022/10/15 01:01:52;;;;;;;;;;;;;;;;;;5012859;28;20379;-58
2022/10/15 01:04:18;;;;;;;;;;;;;;;;;;5011132;28;19921;-58
2022/10/15 01:06:44;;;;;;;;;;;;;;;;;;5013163;28;19968;-57
2022/10/15 01:09:10;;;;;;;;;;;;;;;;;;5010506;28;19956;-58
2022/10/15 01:11:36;;;;;;;;;;;;;;;;;;5010524;28;19991;-58
2022/10/15 01:14:02;;;;;;;;;;;;;;;;;;5011492;28;19957;-58
2022/10/15 01:16:28;;;;;;;;;;;;;;;;;;5010445;28;19924;-58
2022/10/15 01:18:54;;;;;;;;;;;;;;;;;;5012694;28;20629;-58
2022/10/15 01:21:20;;;;;;;;;;;;;;;;;;5011270;28;19964;-58
2022/10/15 01:23:46;;;;;;;;;;;;;;;;;;5012600;28;19921;-58
2022/10/15 01:26:13;;;;;;;;;;;;;;;;;;5008604;28;19928;-58
2022/10/15 01:28:39;;;;;;;;;;;;;;;;;;5010692;28;19922;-58
2022/10/15 01:31:05;;;;;;;;;;;;;;;;;;5012521;28;19931;-58
2022/10/15 01:33:30;;;;;;;;;;;;;;;;;;5011118;28;20278;-58
2022/10/15 01:35:56;;;;;;;;;;;;;;;;;;5014485;28;20007;-58
2022/10/15 01:38:22;;;;;;;;;;;;;;;;;;5011102;28;20300;-57
2022/10/15 01:40:48;;;;;;;;;;;;;;;;;;5010153;28;19917;-58
2022/10/15 01:43:14;;;;;;;;;;;;;;;;;;4994860;28;19937;-58
2022/10/15 01:45:40;;;;;;;;;;;;;;;;;;5011150;28;19984;-57
2022/10/15 01:48:06;;;;;;;;;;;;;;;;;;5011330;28;19924;-57
2022/10/15 01:50:32;;;;;;;;;;;;;;;;;;5010514;28;20453;-58
2022/10/15 01:52:58;;;;;;;;;;;;;;;;;;5009568;28;19930;-58
2022/10/15 01:55:24;;;;;;;;;;;;;;;;;;5011773;28;19983;-58
2022/10/15 01:57:50;;;;;;;;;;;;;;;;;;5010462;28;19944;-58
2022/10/15 02:00:16;;;;;;;;;;;;;;;;;;5012477;28;20299;-58
2022/10/15 02:02:42;;;;;;;;;;;;;;;;;;5011168;28;19921;-58
2022/10/15 02:05:08;;;;;;;;;;;;;;;;;;5013456;28;19929;-58
2022/10/15 02:07:34;;;;;;;;;;;;;;;;;;4994179;28;19922;-57
2022/10/15 02:10:00;;;;;;;;;;;;;;;;;;4991425;28;19967;-58
2022/10/15 02:12:26;;;;;;;;;;;;;;;;;;5011127;28;19936;-55
2022/10/15 02:14:53;;;;;;;;;;;;;;;;;;5011571;28;20015;-58
2022/10/15 02:17:19;;;;;;;;;;;;;;;;;;5012471;28;19921;-58
2022/10/15 02:19:45;;;;;;;;;;;;;;;;;;5011277;28;19968;-58
2022/10/15 02:22:11;;;;;;;;;;;;;;;;;;5009728;28;20334;-58
2022/10/15 02:24:37;;;;;;;;;;;;;;;;;;5011453;28;19963;-58
2022/10/15 02:27:03;;;;;;;;;;;;;;;;;;4992717;28;20005;-58
2022/10/15 02:29:29;;;;;;;;;;;;;;;;;;5011746;28;19960;-57
2022/10/15 02:31:55;;;;;;;;;;;;;;;;;;5007910;28;20422;-59
2022/10/15 02:34:21;;;;;;;;;;;;;;;;;;5008169;28;19922;-58
2022/10/15 02:36:47;;;;;;;;;;;;;;;;;;5008604;28;19924;-57
2022/10/15 02:39:13;;;;;;;;;;;;;;;;;;5007474;28;19975;-58
2022/10/15 02:41:39;;;;;;;;;;;;;;;;;;5008995;28;19924;-58
2022/10/15 02:44:05;;;;;;;;;;;;;;;;;;5008522;28;20615;-58
2022/10/15 02:46:31;;;;;;;;;;;;;;;;;;5008343;28;19967;-58
2022/10/15 02:48:57;;;;;;;;;;;;;;;;;;5008044;28;19921;-58
2022/10/15 02:51:23;;;;;;;;;;;;;;;;;;5008036;28;19975;-58
2022/10/15 02:53:49;;;;;;;;;;;;;;;;;;5007429;28;19960;-58
2022/10/15 02:56:15;;;;;;;;;;;;;;;;;;5004569;28;19921;-58
2022/10/15 02:58:41;;;;;;;;;;;;;;;;;;5008743;28;19921;-58
2022/10/15 03:01:07;;;;;;;;;;;;;;;;;;5008287;28;19925;-58
2022/10/15 03:03:33;;;;;;;;;;;;;;;;;;5007793;28;19922;-58
2022/10/15 03:05:59;;;;;;;;;;;;;;;;;;5007598;28;19944;-57
2022/10/15 03:08:25;;;;;;;;;;;;;;;;;;5006877;28;19921;-58
2022/10/15 03:10:51;;;;;;;;;;;;;;;;;;5008088;28;19921;-58
2022/10/15 03:13:17;;;;;;;;;;;;;;;;;;5007386;28;19929;-58
2022/10/15 03:15:43;;;;;;;;;;;;;;;;;;5008208;28;20091;-58
2022/10/15 03:18:09;;;;;;;;;;;;;;;;;;5007674;28;19933;-58
2022/10/15 03:20:35;;;;;;;;;;;;;;;;;;5007358;28;20286;-58
2022/10/15 03:23:01;;;;;;;;;;;;;;;;;;5004164;28;20010;-58
2022/10/15 03:25:27;;;;;;;;;;;;;;;;;;5007086;28;19963;-58
2022/10/15 03:27:53;;;;;;;;;;;;;;;;;;5007801;28;19921;-58
2022/10/15 03:30:19;;;;;;;;;;;;;;;;;;5007572;28;19928;-58
2022/10/15 03:32:45;;;;;;;;;;;;;;;;;;5007131;28;19929;-57
2022/10/15 03:35:11;;;;;;;;;;;;;;;;;;5006987;28;19921;-57
2022/10/15 03:37:37;;;;;;;;;;;;;;;;;;5007098;28;20274;-56
2022/10/15 03:40:03;;;;;;;;;;;;;;;;;;5006983;28;19975;-56
2022/10/15 03:42:29;;;;;;;;;;;;;;;;;;5007038;28;20798;-58
2022/10/15 03:44:55;;;;;;;;;;;;;;;;;;5007142;28;19922;-58
2022/10/15 03:47:21;;;;;;;;;;;;;;;;;;5006991;28;19921;-58
2022/10/15 03:49:47;;;;;;;;;;;;;;;;;;5007194;28;19980;-58
2022/10/15 03:52:13;;;;;;;;;;;;;;;;;;5007277;28;20414;-58
2022/10/15 03:54:39;;;;;;;;;;;;;;;;;;5006987;28;19976;-58
2022/10/15 03:57:05;;;;;;;;;;;;;;;;;;5008021;28;19964;-57
2022/10/15 03:59:31;;;;;;;;;;;;;;;;;;5006901;28;19929;-58
2022/10/15 04:01:57;;;;;;;;;;;;;;;;;;5006863;28;19940;-58
2022/10/15 04:04:23;;;;;;;;;;;;;;;;;;5006281;28;20360;-57
2022/10/15 04:06:49;;;;;;;;;;;;;;;;;;5007283;28;19967;-58
2022/10/15 04:09:15;;;;;;;;;;;;;;;;;;5005490;28;19921;-58
2022/10/15 04:11:41;;;;;;;;;;;;;;;;;;5007208;28;19964;-58
2022/10/15 04:14:07;;;;;;;;;;;;;;;;;;4989861;28;20012;-57
2022/10/15 04:16:33;;;;;;;;;;;;;;;;;;5006650;28;20008;-57
2022/10/15 04:18:59;;;;;;;;;;;;;;;;;;5006868;28;19921;-53
2022/10/15 04:21:25;;;;;;;;;;;;;;;;;;5006241;28;20494;-58
2022/10/15 04:23:50;;;;;;;;;;;;;;;;;;5006252;28;19922;-57
2022/10/15 04:26:16;;;;;;;;;;;;;;;;;;5006370;28;20434;-58
2022/10/15 04:28:42;;;;;;;;;;;;;;;;;;5006641;28;20012;-57
2022/10/15 04:31:08;;;;;;;;;;;;;;;;;;5006536;28;19921;-58
2022/10/15 04:33:34;;;;;;;;;;;;;;;;;;5006315;28;20020;-58
2022/10/15 04:36:00;;;;;;;;;;;;;;;;;;5006441;28;20363;-58
2022/10/15 04:38:26;;;;;;;;;;;;;;;;;;5005584;28;20016;-58
2022/10/15 04:40:52;;;;;;;;;;;;;;;;;;5006399;28;20073;-57
2022/10/15 04:43:18;;;;;;;;;;;;;;;;;;5006533;28;19921;-58
2022/10/15 04:45:44;;;;;;;;;;;;;;;;;;5005731;28;19917;-56
2022/10/15 04:48:10;;;;;;;;;;;;;;;;;;5006289;28;19975;-58
2022/10/15 04:50:36;;;;;;;;;;;;;;;;;;5006437;28;19921;-58
2022/10/15 04:53:02;;;;;;;;;;;;;;;;;;5003166;28;19922;-58
2022/10/15 04:55:28;;;;;;;;;;;;;;;;;;5006578;28;19980;-58
2022/10/15 04:57:54;;;;;;;;;;;;;;;;;;5006450;28;19930;-59
2022/10/15 05:00:20;;;;;;;;;;;;;;;;;;5005992;28;19929;-58
2022/10/15 05:02:46;;;;;;;;;;;;;;;;;;5006108;28;20307;-58
2022/10/15 05:05:12;;;;;;;;;;;;;;;;;;5002233;28;19921;-57
2022/10/15 05:07:38;;;;;;;;;;;;;;;;;;5005248;28;19922;-58
2022/10/15 05:10:04;;;;;;;;;;;;;;;;;;5006312;28;19929;-58
2022/10/15 05:12:30;;;;;;;;;;;;;;;;;;5005131;28;19965;-58
2022/10/15 05:14:56;;;;;;;;;;;;;;;;;;5005815;28;19932;-58
2022/10/15 05:17:22;;;;;;;;;;;;;;;;;;5005434;28;19928;-58
2022/10/15 05:19:48;;;;;;;;;;;;;;;;;;5006034;28;19928;-57
2022/10/15 05:22:14;;;;;;;;;;;;;;;;;;5004655;28;19921;-58
2022/10/15 05:24:40;;;;;;;;;;;;;;;;;;5006160;28;20004;-59
2022/10/15 05:27:06;;;;;;;;;;;;;;;;;;5006383;28;19925;-58
2022/10/15 05:29:32;;;;;;;;;;;;;;;;;;5005657;28;19921;-58
2022/10/15 05:31:58;;;;;;;;;;;;;;;;;;5004777;28;19975;-58
2022/10/15 05:34:27;;;;;;;;;;;;;;;;;;5005593;28;19921;-58
2022/10/15 05:36:53;;;;;;;;;;;;;;;;;;5005130;28;20573;-59
2022/10/15 05:39:19;;;;;;;;;;;;;;;;;;5004788;28;20375;-58
2022/10/15 05:41:45;;;;;;;;;;;;;;;;;;5005229;28;19965;-58
2022/10/15 05:44:11;;;;;;;;;;;;;;;;;;5006125;28;19928;-59
2022/10/15 05:46:37;;;;;;;;;;;;;;;;;;5009699;28;19922;-58
2022/10/15 05:49:03;;;;;;;;;;;;;;;;;;5008305;28;20414;-58
2022/10/15 05:51:29;;;;;;;;;;;;;;;;;;5008492;28;20174;-59
2022/10/15 05:53:55;;;;;;;;;;;;;;;;;;5008647;28;20382;-59
2022/10/15 05:56:21;;;;;;;;;;;;;;;;;;5009011;28;19969;-57
2022/10/15 05:58:47;;;;;;;;;;;;;;;;;;5008411;28;19960;-58
2022/10/15 06:01:13;;;;;;;;;;;;;;;;;;5008753;28;19925;-58
2022/10/15 06:03:39;;;;;;;;;;;;;;;;;;5007303;28;19921;-55
2022/10/15 06:06:05;;;;;;;;;;;;;;;;;;5006790;28;19976;-59
2022/10/15 06:08:31;;;;;;;;;;;;;;;;;;5004776;28;19928;-58
2022/10/15 06:10:57;;;;;;;;;;;;;;;;;;5005948;28;19921;-58
2022/10/15 06:13:23;;;;;;;;;;;;;;;;;;5005561;28;19936;-58
2022/10/15 06:15:49;;;;;;;;;;;;;;;;;;4998634;28;19922;-57
2022/10/15 06:18:16;;;;;;;;;;;;;;;;;;4999110;28;19917;-58
2022/10/15 06:20:42;;;;;;;;;;;;;;;;;;4991398;28;19926;-58
2022/10/15 06:23:08;;;;;;;;;;;;;;;;;;4993983;28;19926;-57
2022/10/15 06:25:34;;;;;;;;;;;;;;;;;;4992301;28;19932;-58
2022/10/15 06:28:00;;;;;;;;;;;;;;;;;;5001991;28;20402;-57
2022/10/15 06:30:26;;;;;;;;;;;;;;;;;;4996991;28;20302;-58
2022/10/15 06:32:52;;;;;;;;;;;;;;;;;;4990976;28;19929;-58
2022/10/15 06:35:18;;;;;;;;;;;;;;;;;;5005386;28;19917;-58
2022/10/15 06:37:44;;;;;;;;;;;;;;;;;;5003665;28;20290;-58
2022/10/15 06:40:10;;;;;;;;;;;;;;;;;;4985524;28;20056;-58
2022/10/15 06:42:36;;;;;;;;;;;;;;;;;;5002599;28;20012;-58
2022/10/15 06:45:02;;;;;;;;;;;;;;;;;;4999134;28;20381;-58
2022/10/15 06:47:28;;;;;;;;;;;;;;;;;;4999860;28;20326;-59
2022/10/15 06:49:54;;;;;;;;;;;;;;;;;;5007269;28;19975;-59
2022/10/15 06:52:20;;;;;;;;;;;;;;;;;;5008061;28;19928;-57
2022/10/15 06:54:46;;;;;;;;;;;;;;;;;;5009305;28;20033;-59
2022/10/15 06:57:12;;;;;;;;;;;;;;;;;;5007503;28;19929;-57
2022/10/15 06:59:38;;;;;;;;;;;;;;;;;;5009917;28;20358;-59
2022/10/15 07:02:04;;;;;;;;;;;;;;;;;;5009066;28;19928;-58
2022/10/15 07:04:30;;;;;;;;;;;;;;;;;;5002007;28;19929;-58
2022/10/15 07:06:56;;;;;;;;;;;;;;;;;;5007045;28;20127;-59
2022/10/15 07:09:22;;;;;;;;;;;;;;;;;;4995622;28;20279;-58
2022/10/15 07:11:48;;;;;;;;;;;;;;;;;;4994651;28;19991;-59
2022/10/15 07:14:14;;;;;;;;;;;;;;;;;;4994376;28;19961;-58
2022/10/15 07:16:40;;;;;;;;;;;;;;;;;;4990336;28;19929;-58
2022/10/15 07:19:06;;;;;;;;;;;;;;;;;;4990199;28;19933;-55
2022/10/15 07:21:33;;;;;;;;;;;;;;;;;;4991015;28;20368;-59
2022/10/15 07:23:59;;;;;;;;;;;;;;;;;;4987862;28;20272;-58
2022/10/15 07:26:28;;;;;;;;;;;;;;;;;;4987491;28;19922;-58
2022/10/15 07:28:54;;;;;;;;;;;;;;;;;;4996561;28;19972;-59
2022/10/15 07:31:20;;;;;;;;;;;;;;;;;;4991309;28;19976;-57
2022/10/15 07:33:46;;;;;;;;;;;;;;;;;;4990284;28;19976;-58
2022/10/15 07:36:12;;;;;;;;;;;;;;;;;;4990025;28;19965;-58
2022/10/15 07:38:39;;;;;;;;;;;;;;;;;;4990630;28;20382;-58
2022/10/15 07:41:05;;;;;;;;;;;;;;;;;;4988843;28;19926;-58
2022/10/15 07:43:31;;;;;;;;;;;;;;;;;;4990537;28;19929;-58
2022/10/15 07:45:57;;;;;;;;;;;;;;;;;;4991189;28;20462;-58
2022/10/15 07:48:23;;;;;;;;;;;;;;;;;;5002525;28;19992;-58
2022/10/15 07:50:49;;;;;;;;;;;;;;;;;;5003860;28;19964;-58
2022/10/15 07:53:15;;;;;;;;;;;;;;;;;;5000724;28;19975;-57
2022/10/15 07:55:41;;;;;;;;;;;;;;;;;;5001513;28;19951;-58
2022/10/15 07:58:07;;;;;;;;;;;;;;;;;;4997625;28;20686;-58
2022/10/15 08:00:33;;;;;;;;;;;;;;;;;;5002419;28;19926;-58
2022/10/15 08:02:59;;;;;;;;;;;;;;;;;;5003917;28;19925;-57
2022/10/15 08:05:25;;;;;;;;;;;;;;;;;;5002670;28;19932;-58
2022/10/15 08:07:51;;;;;;;;;;;;;;;;;;5001003;28;19922;-57
2022/10/15 08:10:17;;;;;;;;;;;;;;;;;;5003280;28;19979;-58
2022/10/15 08:12:43;;;;;;;;;;;;;;;;;;5001302;28;20008;-58
2022/10/15 08:15:10;;;;;;;;;;;;;;;;;;4984683;28;20024;-57
2022/10/15 08:17:36;;;;;;;;;;;;;;;;;;5003539;28;20363;-58
2022/10/15 08:20:02;;;;;;;;;;;;;;;;;;5002989;28;20390;-58
2022/10/15 08:22:27;;;;;;;;;;;;;;;;;;5001761;28;19929;-58
2022/10/15 08:24:53;;;;;;;;;;;;;;;;;;5003051;28;20330;-58
2022/10/15 08:27:19;;;;;;;;;;;;;;;;;;5000825;28;19979;-58
2022/10/15 08:29:45;;;;;;;;;;;;;;;;;;5002227;28;20026;-56
2022/10/15 08:32:11;;;;;;;;;;;;;;;;;;5002630;28;20008;-55
2022/10/15 08:34:37;;;;;;;;;;;;;;;;;;4999962;28;20371;-57
2022/10/15 08:37:03;;;;;;;;;;;;;;;;;;5001886;28;19932;-58
2022/10/15 08:39:29;;;;;;;;;;;;;;;;;;5002282;28;19925;-58
2022/10/15 08:41:56;;;;;;;;;;;;;;;;;;5002149;28;19925;-57
2022/10/15 08:44:22;;;;;;;;;;;;;;;;;;5002530;28;19930;-56
2022/10/15 08:46:48;;;;;;;;;;;;;;;;;;5002592;28;19932;-58
2022/10/15 08:49:14;;;;;;;;;;;;;;;;;;4998633;28;19921;-56
2022/10/15 08:51:40;;;;;;;;;;;;;;;;;;5002053;28;20565;-57
2022/10/15 08:54:06;;;;;;;;;;;;;;;;;;5002909;28;19991;-58
2022/10/15 08:56:32;;;;;;;;;;;;;;;;;;5002327;28;19944;-56
2022/10/15 08:58:58;;;;;;;;;;;;;;;;;;5002238;28;19976;-58
2022/10/15 09:01:24;;;;;;;;;;;;;;;;;;5002247;28;19975;-58
2022/10/15 09:03:50;;;;;;;;;;;;;;;;;;5003053;28;20015;-58
2022/10/15 09:06:16;;;;;;;;;;;;;;;;;;5002571;28;19925;-58
2022/10/15 09:08:42;;;;;;;;;;;;;;;;;;4999067;28;19972;-58
2022/10/15 09:11:08;;;;;;;;;;;;;;;;;;5000464;28;19925;-58
2022/10/15 09:13:34;;;;;;;;;;;;;;;;;;4995488;28;20009;-57
2022/10/15 09:16:00;;;;;;;;;;;;;;;;;;4999583;28;19932;-58
2022/10/15 09:18:26;;;;;;;;;;;;;;;;;;4999626;28;20566;-58
2022/10/15 09:20:52;;;;;;;;;;;;;;;;;;5002262;28;19925;-57
2022/10/15 09:23:18;;;;;;;;;;;;;;;;;;5004014;28;19929;-57
2022/10/15 09:25:44;;;;;;;;;;;;;;;;;;5004377;28;20348;-59
2022/10/15 09:28:10;;;;;;;;;;;;;;;;;;5001947;28;19921;-56
2022/10/15 09:30:36;;;;;;;;;;;;;;;;;;5006038;28;19927;-56
2022/10/15 09:33:02;;;;;;;;;;;;;;;;;;5005520;28;19925;-55
2022/10/15 09:35:28;;;;;;;;;;;;;;;;;;5004842;28;19918;-55
2022/10/15 09:37:54;;;;;;;;;;;;;;;;;;5004008;28;19980;-55
2022/10/15 09:40:20;;;;;;;;;;;;;;;;;;5002883;28;19932;-57
2022/10/15 09:42:46;;;;;;;;;;;;;;;;;;4997917;28;19928;-57
2022/10/15 09:45:13;;;;;;;;;;;;;;;;;;4995561;28;20379;-57
2022/10/15 09:47:38;;;;;;;;;;;;;;;;;;4995656;28;19925;-58
2022/10/15 09:50:04;;;;;;;;;;;;;;;;;;4994766;28;20364;-56
2022/10/15 09:52:31;;;;;;;;;;;;;;;;;;4995161;28;19925;-57
2022/10/15 09:54:56;;;;;;;;;;;;;;;;;;4999689;28;19936;-56
2022/10/15 09:57:22;;;;;;;;;;;;;;;;;;4999199;28;19922;-58
2022/10/15 09:59:49;;;;;;;;;;;;;;;;;;5000186;28;20417;-57
2022/10/15 10:02:14;;;;;;;;;;;;;;;;;;4999260;28;19925;-57
2022/10/15 10:04:40;;;;;;;;;;;;;;;;;;5004372;28;19940;-57
2022/10/15 10:07:06;;;;;;;;;;;;;;;;;;5003195;28;19976;-57
2022/10/15 10:09:33;;;;;;;;;;;;;;;;;;5002832;28;19926;-57
2022/10/15 10:11:58;;;;;;;;;;;;;;;;;;5004036;28;19984;-55
2022/10/15 10:14:24;;;;;;;;;;;;;;;;;;5003439;28;20718;-57
2022/10/15 10:16:50;;;;;;;;;;;;;;;;;;5003624;28;20086;-57
2022/10/15 10:19:16;;;;;;;;;;;;;;;;;;5002556;28;19925;-56
2022/10/15 10:21:43;;;;;;;;;;;;;;;;;;5002180;28;20364;-57
2022/10/15 10:24:09;;;;;;;;;;;;;;;;;;5003838;28;19930;-58
2022/10/15 10:26:35;;;;;;;;;;;;;;;;;;5003410;28;19929;-57
2022/10/15 10:29:01;;;;;;;;;;;;;;;;;;5004202;28;19922;-58
2022/10/15 10:31:27;;;;;;;;;;;;;;;;;;5002000;28;19949;-57
2022/10/15 10:33:53;;;;;;;;;;;;;;;;;;5003926;28;19929;-57
2022/10/15 10:36:19;;;;;;;;;;;;;;;;;;5002157;28;19987;-57
2022/10/15 10:38:49;;;;;;;;;;;;;;;;;;5002572;28;19929;-57
2022/10/15 10:41:15;;;;;;;;;;;;;;;;;;5002815;28;19925;-57
2022/10/15 10:43:41;;;;;;;;;;;;;;;;;;5003370;28;19929;-58
2022/10/15 10:46:11;;;;;;;;;;;;;;;;;;5003993;28;20371;-57
2022/10/15 10:48:38;;;;;;;;;;;;;;;;;;5002896;28;19944;-57
2022/10/15 10:51:04;;;;;;;;;;;;;;;;;;5002352;28;19981;-57
2022/10/15 10:53:30;;;;;;;;;;;;;;;;;;4999307;28;19976;-57
2022/10/15 10:55:56;;;;;;;;;;;;;;;;;;5002952;28;20378;-57
2022/10/15 10:58:22;;;;;;;;;;;;;;;;;;4969662;28;20021;-57
2022/10/15 11:00:48;;;;;;;;;;;;;;;;;;5002098;28;19925;-57
2022/10/15 11:03:14;;;;;;;;;;;;;;;;;;5000207;28;19928;-58
2022/10/15 11:05:40;;;;;;;;;;;;;;;;;;5002342;28;20286;-58
2022/10/15 11:08:06;;;;;;;;;;;;;;;;;;5002566;28;19932;-57
2022/10/15 11:10:33;;;;;;;;;;;;;;;;;;5002279;28;19929;-58
2022/10/15 11:12:59;;;;;;;;;;;;;;;;;;4999608;28;19925;-57
2022/10/15 11:15:26;;;;;;;;;;;;;;;;;;4999940;28;19978;-57
2022/10/15 11:17:52;;;;;;;;;;;;;;;;;;4998854;28;19956;-57
2022/10/15 11:20:18;;;;;;;;;;;;;;;;;;5000382;28;19988;-57
2022/10/15 11:22:44;;;;;;;;;;;;;;;;;;4994142;28;20540;-58
2022/10/15 11:25:10;;;;;;;;;;;;;;;;;;4992014;28;19936;-58
2022/10/15 11:27:36;;;;;;;;;;;;;;;;;;4997558;28;19921;-57
2022/10/15 11:30:02;;;;;;;;;;;;;;;;;;4996154;28;19932;-56
2022/10/15 11:32:28;;;;;;;;;;;;;;;;;;4995093;28;20011;-56
2022/10/15 11:34:54;;;;;;;;;;;;;;;;;;5002288;28;19925;-54
2022/10/15 11:37:19;;;;;;;;;;;;;;;;;;4995570;28;19921;-56
2022/10/15 11:39:46;;;;;;;;;;;;;;;;;;5000590;28;19926;-55
2022/10/15 11:42:11;;;;;;;;;;;;;;;;;;5000333;28;20097;-56
2022/10/15 11:44:38;;;;;;;;;;;;;;;;;;4985043;28;20477;-55
2022/10/15 11:47:04;;;;;;;;;;;;;;;;;;4999631;28;19929;-55
2022/10/15 11:49:30;;;;;;;;;;;;;;;;;;4984918;28;19925;-56
2022/10/15 11:51:57;;;;;;;;;;;;;;;;;;5003722;28;19937;-57
2022/10/15 11:54:23;;;;;;;;;;;;;;;;;;5004876;28;19924;-55
2022/10/15 11:56:49;;;;;;;;;;;;;;;;;;5005812;28;19921;-55
2022/10/15 11:59:15;;;;;;;;;;;;;;;;;;5005873;28;19987;-56
2022/10/15 12:01:41;;;;;;;;;;;;;;;;;;5006694;28;19925;-56
2022/10/15 12:04:08;;;;;;;;;;;;;;;;;;5006410;28;19929;-57
2022/10/15 12:06:34;;;;;;;;;;;;;;;;;;5005537;28;19956;-56
2022/10/15 12:09:00;;;;;;;;;;;;;;;;;;5005566;28;19964;-54
2022/10/15 12:11:26;;;;;;;;;;;;;;;;;;5005910;28;19928;-56
2022/10/15 12:13:52;;;;;;;;;;;;;;;;;;5006207;28;19962;-56
2022/10/15 12:16:18;;;;;;;;;;;;;;;;;;5006218;28;19961;-57
2022/10/15 12:18:44;;;;;;;;;;;;;;;;;;5005906;28;19918;-56
2022/10/15 12:21:10;;;;;;;;;;;;;;;;;;5005092;28;19928;-56
2022/10/15 12:23:36;;;;;;;;;;;;;;;;;;5006451;28;19925;-56
2022/10/15 12:26:02;;;;;;;;;;;;;;;;;;5006240;28;20012;-54
2022/10/15 12:28:28;;;;;;;;;;;;;;;;;;5005573;28;19921;-55
2022/10/15 12:30:54;;;;;;;;;;;;;;;;;;5005898;28;20008;-57
2022/10/15 12:33:20;;;;;;;;;;;;;;;;;;5005391;28;19948;-56
2022/10/15 12:35:46;;;;;;;;;;;;;;;;;;5005950;28;19922;-57
2022/10/15 12:38:12;;;;;;;;;;;;;;;;;;4986983;28;19921;-56
2022/10/15 12:40:38;;;;;;;;;;;;;;;;;;5005475;28;19972;-56
2022/10/15 12:43:04;;;;;;;;;;;;;;;;;;5006379;28;19984;-56
2022/10/15 12:45:30;;;;;;;;;;;;;;;;;;5005364;28;19951;-56
2022/10/15 12:47:56;;;;;;;;;;;;;;;;;;4999162;28;19929;-56
2022/10/15 12:50:22;;;;;;;;;;;;;;;;;;5004982;28;19921;-56
2022/10/15 12:52:48;;;;;;;;;;;;;;;;;;5005504;28;20012;-56
2022/10/15 12:55:14;;;;;;;;;;;;;;;;;;5009222;28;20020;-57
2022/10/15 12:57:40;;;;;;;;;;;;;;;;;;5009610;28;19925;-55
2022/10/15 13:00:06;;;;;;;;;;;;;;;;;;5010069;28;19975;-56
2022/10/15 13:02:32;;;;;;;;;;;;;;;;;;5009516;28;19972;-54
2022/10/15 13:04:58;;;;;;;;;;;;;;;;;;5009957;28;20310;-56
2022/10/15 13:07:24;;;;;;;;;;;;;;;;;;5008442;28;20000;-57
2022/10/15 13:09:50;;;;;;;;;;;;;;;;;;5008843;28;19929;-57
2022/10/15 13:12:16;;;;;;;;;;;;;;;;;;4987601;28;19922;-55
2022/10/15 13:14:42;;;;;;;;;;;;;;;;;;4988995;28;19984;-57
2022/10/15 13:17:08;;;;;;;;;;;;;;;;;;4989812;28;19925;-57
2022/10/15 13:19:34;;;;;;;;;;;;;;;;;;4989725;28;19929;-57
2022/10/15 13:22:00;;;;;;;;;;;;;;;;;;4988083;28;20343;-57
2022/10/15 13:24:26;;;;;;;;;;;;;;;;;;4988120;28;19977;-57
2022/10/15 13:26:52;;;;;;;;;;;;;;;;;;4989386;28;19933;-57
2022/10/15 13:29:18;;;;;;;;;;;;;;;;;;4989845;28;19921;-58
2022/10/15 13:31:44;;;;;;;;;;;;;;;;;;4987014;28;19929;-57
2022/10/15 13:34:10;;;;;;;;;;;;;;;;;;4988961;28;19925;-54
2022/10/15 13:36:36;;;;;;;;;;;;;;;;;;4988374;28;19922;-56
2022/10/15 13:39:02;;;;;;;;;;;;;;;;;;4988557;28;19948;-55
2022/10/15 13:41:28;;;;;;;;;;;;;;;;;;4987199;28;19930;-57
2022/10/15 13:43:57;;;;;;;;;;;;;;;;;;4987708;28;19929;-57
2022/10/15 13:46:23;;;;;;;;;;;;;;;;;;4985740;28;19930;-57
2022/10/15 13:48:49;;;;;;;;;;;;;;;;;;4988514;28;20005;-57
2022/10/15 13:51:15;;;;;;;;;;;;;;;;;;4987719;28;20012;-58
2022/10/15 13:53:41;;;;;;;;;;;;;;;;;;4988362;28;19928;-57
2022/10/15 13:56:07;;;;;;;;;;;;;;;;;;4988876;28;20089;-55
2022/10/15 13:58:33;;;;;;;;;;;;;;;;;;4985652;28;20632;-57
2022/10/15 14:00:59;;;;;;;;;;;;;;;;;;4987759;28;19925;-57
2022/10/15 14:03:26;;;;;;;;;;;;;;;;;;4986189;28;19937;-57
2022/10/15 14:05:52;;;;;;;;;;;;;;;;;;4980999;28;19926;-57
2022/10/15 14:08:18;;;;;;;;;;;;;;;;;;4988915;28;19921;-57
2022/10/15 14:10:44;;;;;;;;;;;;;;;;;;4985989;28;19929;-56
2022/10/15 14:13:10;;;;;;;;;;;;;;;;;;4998455;28;19930;-57
2022/10/15 14:15:36;;;;;;;;;;;;;;;;;;5006831;28;20295;-57
2022/10/15 14:18:02;;;;;;;;;;;;;;;;;;5007425;28;19937;-57
2022/10/15 14:20:28;;;;;;;;;;;;;;;;;;5007392;28;19921;-57
2022/10/15 14:22:54;;;;;;;;;;;;;;;;;;5007081;28;19929;-55
2022/10/15 14:25:20;;;;;;;;;;;;;;;;;;5008022;28;19928;-57
2022/10/15 14:27:46;;;;;;;;;;;;;;;;;;5008291;28;19922;-57
2022/10/15 14:30:12;;;;;;;;;;;;;;;;;;5007568;28;20286;-55
2022/10/15 14:32:38;;;;;;;;;;;;;;;;;;5008789;28;19925;-57
2022/10/15 14:35:04;;;;;;;;;;;;;;;;;;5008365;28;20475;-57
2022/10/15 14:37:30;;;;;;;;;;;;;;;;;;5006824;28;19933;-57
2022/10/15 14:39:56;;;;;;;;;;;;;;;;;;5008204;28;19917;-55
2022/10/15 14:42:22;;;;;;;;;;;;;;;;;;5007721;28;19922;-57
2022/10/15 14:44:49;;;;;;;;;;;;;;;;;;5007596;28;19930;-57
2022/10/15 14:47:15;;;;;;;;;;;;;;;;;;5007405;28;19975;-57
2022/10/15 14:49:41;;;;;;;;;;;;;;;;;;5007847;28;20394;-56
2022/10/15 14:52:07;;;;;;;;;;;;;;;;;;5006679;28;19956;-57
2022/10/15 14:54:33;;;;;;;;;;;;;;;;;;5007780;28;20271;-57
2022/10/15 14:56:59;;;;;;;;;;;;;;;;;;5006779;28;20554;-54
2022/10/15 14:59:25;;;;;;;;;;;;;;;;;;5006697;28;20347;-57
2022/10/15 15:01:51;;;;;;;;;;;;;;;;;;5006840;28;19936;-56
2022/10/15 15:04:17;;;;;;;;;;;;;;;;;;4990046;28;19921;-57
2022/10/15 15:06:43;;;;;;;;;;;;;;;;;;5006508;28;19940;-56
2022/10/15 15:09:09;;;;;;;;;;;;;;;;;;5007664;28;19942;-57
2022/10/15 15:11:35;;;;;;;;;;;;;;;;;;5006646;28;20537;-58
2022/10/15 15:14:02;;;;;;;;;;;;;;;;;;5007380;28;20028;-58
2022/10/15 15:16:28;;;;;;;;;;;;;;;;;;5006251;28;20402;-57
2022/10/15 15:18:56;;;;;;;;;;;;;;;;;;5006503;28;19925;-55
2022/10/15 15:21:22;;;;;;;;;;;;;;;;;;5003914;28;19921;-56
2022/10/15 15:23:48;;;;;;;;;;;;;;;;;;5007226;28;19940;-57
2022/10/15 15:26:14;;;;;;;;;;;;;;;;;;5003569;28;19933;-57
2022/10/15 15:28:40;;;;;;;;;;;;;;;;;;5003586;28;19933;-57
2022/10/15 15:31:06;;;;;;;;;;;;;;;;;;5004958;28;19922;-57
2022/10/15 15:33:32;;;;;;;;;;;;;;;;;;5004786;28;21320;-57
2022/10/15 15:35:58;;;;;;;;;;;;;;;;;;5003568;28;19929;-57
2022/10/15 15:38:30;;;;;;;;;;;;;;;;;;5003727;28;19980;-56
2022/10/15 15:40:56;;;;;;;;;;;;;;;;;;5003543;28;19928;-57
2022/10/15 15:43:22;;;;;;;;;;;;;;;;;;5003381;28;20008;-56
2022/10/15 15:45:48;;;;;;;;;;;;;;;;;;4985301;28;19968;-56
2022/10/15 15:48:14;;;;;;;;;;;;;;;;;;5003686;28;19925;-57
2022/10/15 15:50:40;;;;;;;;;;;;;;;;;;5002944;28;19929;-57
2022/10/15 15:53:06;;;;;;;;;;;;;;;;;;5003438;28;19983;-56
2022/10/15 15:55:32;;;;;;;;;;;;;;;;;;5003762;28;20134;-57
2022/10/15 15:57:58;;;;;;;;;;;;;;;;;;5003222;28;20386;-57
2022/10/15 16:00:24;;;;;;;;;;;;;;;;;;5002438;28;19929;-57
2022/10/15 16:02:50;;;;;;;;;;;;;;;;;;5002495;28;20712;-57
2022/10/15 16:05:16;;;;;;;;;;;;;;;;;;5002637;28;20001;-57
2022/10/15 16:07:42;;;;;;;;;;;;;;;;;;5002544;28;19921;-57
2022/10/15 16:10:10;;;;;;;;;;;;;;;;;;5003866;28;19933;-54
2022/10/15 16:12:36;;;;;;;;;;;;;;;;;;4986249;28;19980;-56
2022/10/15 16:15:02;;;;;;;;;;;;;;;;;;5003755;28;19925;-57
2022/10/15 16:17:28;;;;;;;;;;;;;;;;;;5003615;28;20058;-57
2022/10/15 16:19:54;;;;;;;;;;;;;;;;;;4988114;28;20398;-56
2022/10/15 16:22:20;;;;;;;;;;;;;;;;;;5003335;28;19980;-56
2022/10/15 16:24:46;;;;;;;;;;;;;;;;;;5003433;28;19921;-57
2022/10/15 16:27:12;;;;;;;;;;;;;;;;;;5003440;28;20374;-57
2022/10/15 16:29:38;;;;;;;;;;;;;;;;;;5003524;28;19929;-56
2022/10/15 16:32:04;;;;;;;;;;;;;;;;;;5004393;28;19925;-56
2022/10/15 16:34:30;;;;;;;;;;;;;;;;;;5003508;28;20011;-58
2022/10/15 16:36:56;;;;;;;;;;;;;;;;;;5002720;28;20060;-57